sensor_id;sensor_type;location;lat;lon;timestamp;P1;durP1;ratioP1;P2;durP2;ratioP2
45011;SDS011;63444;48.148;11.542;2023-02-01T00:01:19;3.00;;;2.70;;
45011;SDS011;63444;48.148;11.542;2023-02-01T00:03:45;3.97;;;3.23;;
45011;SDS011;63444;48.148;11.542;2023-02-01T00:06:10;3.33;;;2.80;;
45011;SDS011;63444;48.148;11.542;2023-02-01T00:08:36;3.93;;;2.80;;
45011;SDS011;63444;48.148;11.542;2023-02-01T00:11:06;4.43;;;3.40;;
45011;SDS011;63444;48.148;11.542;2023-02-01T00:13:34;5.97;;;3.37;;
45011;SDS011;63444;48.148;11.542;2023-02-01T00:16:13;3.43;;;2.67;;
45011;SDS011;63444;48.148;11.542;2023-02-01T00:18:44;4.63;;;2.93;;
45011;SDS011;63444;48.148;11.542;2023-02-01T00:21:12;3.37;;;3.07;;
45011;SDS011;63444;48.148;11.542;2023-02-01T00:23:39;4.33;;;3.20;;
45011;SDS011;63444;48.148;11.542;2023-02-01T00:26:06;3.40;;;3.10;;
45011;SDS011;63444;48.148;11.542;2023-02-01T00:28:35;3.20;;;2.90;;
45011;SDS011;63444;48.148;11.542;2023-02-01T00:31:01;5.17;;;2.87;;
45011;SDS011;63444;48.148;11.542;2023-02-01T00:33:29;4.33;;;2.90;;
45011;SDS011;63444;48.148;11.542;2023-02-01T00:35:56;3.80;;;3.17;;
45011;SDS011;63444;48.148;11.542;2023-02-01T00:38:23;4.40;;;3.13;;
45011;SDS011;63444;48.148;11.542;2023-02-01T00:40:50;4.53;;;2.80;;
45011;SDS011;63444;48.148;11.542;2023-02-01T00:43:15;3.60;;;3.17;;
45011;SDS011;63444;48.148;11.542;2023-02-01T00:45:41;4.60;;;3.20;;
45011;SDS011;63444;48.148;11.542;2023-02-01T00:48:06;4.53;;;3.60;;
45011;SDS011;63444;48.148;11.542;2023-02-01T00:50:32;4.43;;;3.63;;
45011;SDS011;63444;48.148;11.542;2023-02-01T00:52:57;5.53;;;3.03;;
45011;SDS011;63444;48.148;11.542;2023-02-01T00:55:24;4.43;;;3.50;;
45011;SDS011;63444;48.148;11.542;2023-02-01T00:57:49;3.43;;;3.13;;
45011;SDS011;63444;48.148;11.542;2023-02-01T01:00:15;4.47;;;4.03;;
45011;SDS011;63444;48.148;11.542;2023-02-01T01:02:41;6.87;;;4.17;;
45011;SDS011;63444;48.148;11.542;2023-02-01T01:05:07;4.10;;;3.63;;
45011;SDS011;63444;48.148;11.542;2023-02-01T01:07:33;5.10;;;3.90;;
45011;SDS011;63444;48.148;11.542;2023-02-01T01:09:59;4.33;;;3.87;;
45011;SDS011;63444;48.148;11.542;2023-02-01T01:12:26;4.43;;;3.70;;
45011;SDS011;63444;48.148;11.542;2023-02-01T01:14:51;4.80;;;4.00;;
45011;SDS011;63444;48.148;11.542;2023-02-01T01:17:17;6.13;;;4.10;;
45011;SDS011;63444;48.148;11.542;2023-02-01T01:19:43;4.50;;;3.63;;
45011;SDS011;63444;48.148;11.542;2023-02-01T01:22:08;4.70;;;3.90;;
45011;SDS011;63444;48.148;11.542;2023-02-01T01:24:34;5.70;;;4.20;;
45011;SDS011;63444;48.148;11.542;2023-02-01T01:26:59;6.40;;;4.33;;
45011;SDS011;63444;48.148;11.542;2023-02-01T01:29:25;4.30;;;3.90;;
45011;SDS011;63444;48.148;11.542;2023-02-01T01:31:51;5.47;;;4.10;;
45011;SDS011;63444;48.148;11.542;2023-02-01T01:34:17;6.37;;;3.93;;
45011;SDS011;63444;48.148;11.542;2023-02-01T01:36:42;5.40;;;4.10;;
45011;SDS011;63444;48.148;11.542;2023-02-01T01:39:08;5.07;;;4.30;;
45011;SDS011;63444;48.148;11.542;2023-02-01T01:41:34;4.80;;;4.20;;
45011;SDS011;63444;48.148;11.542;2023-02-01T01:44:03;5.30;;;4.03;;
45011;SDS011;63444;48.148;11.542;2023-02-01T01:49:08;5.77;;;4.60;;
45011;SDS011;63444;48.148;11.542;2023-02-01T01:51:38;4.87;;;4.33;;
45011;SDS011;63444;48.148;11.542;2023-02-01T01:54:13;7.27;;;5.03;;
45011;SDS011;63444;48.148;11.542;2023-02-01T01:56:42;6.50;;;5.17;;
45011;SDS011;63444;48.148;11.542;2023-02-01T01:59:12;6.13;;;5.30;;
45011;SDS011;63444;48.148;11.542;2023-02-01T02:01:37;5.37;;;4.83;;
45011;SDS011;63444;48.148;11.542;2023-02-01T02:04:03;6.53;;;5.73;;
45011;SDS011;63444;48.148;11.542;2023-02-01T02:09:12;5.83;;;5.10;;
45011;SDS011;63444;48.148;11.542;2023-02-01T02:11:39;8.37;;;5.40;;
45011;SDS011;63444;48.148;11.542;2023-02-01T02:14:05;7.87;;;5.60;;
45011;SDS011;63444;48.148;11.542;2023-02-01T02:19:52;7.47;;;5.67;;
45011;SDS011;63444;48.148;11.542;2023-02-01T02:26:01;6.50;;;5.67;;
45011;SDS011;63444;48.148;11.542;2023-02-01T02:45:17;5.77;;;5.17;;
45011;SDS011;63444;48.148;11.542;2023-02-01T02:48:20;6.50;;;5.33;;
45011;SDS011;63444;48.148;11.542;2023-02-01T02:51:16;6.93;;;5.50;;
45011;SDS011;63444;48.148;11.542;2023-02-01T02:54:23;8.43;;;5.17;;
45011;SDS011;63444;48.148;11.542;2023-02-01T02:57:13;6.37;;;5.13;;
45011;SDS011;63444;48.148;11.542;2023-02-01T03:00:03;5.27;;;4.77;;
45011;SDS011;63444;48.148;11.542;2023-02-01T03:02:51;5.10;;;4.60;;
45011;SDS011;63444;48.148;11.542;2023-02-01T03:05:37;6.43;;;4.33;;
45011;SDS011;63444;48.148;11.542;2023-02-01T03:13:13;5.93;;;5.10;;
45011;SDS011;63444;48.148;11.542;2023-02-01T03:18:13;5.20;;;4.17;;
45011;SDS011;63444;48.148;11.542;2023-02-01T03:20:46;5.30;;;4.53;;
45011;SDS011;63444;48.148;11.542;2023-02-01T03:23:16;4.40;;;4.00;;
45011;SDS011;63444;48.148;11.542;2023-02-01T03:25:44;7.13;;;5.00;;
45011;SDS011;63444;48.148;11.542;2023-02-01T03:28:13;5.53;;;4.50;;
45011;SDS011;63444;48.148;11.542;2023-02-01T03:30:45;4.47;;;4.00;;
45011;SDS011;63444;48.148;11.542;2023-02-01T03:33:13;6.23;;;4.43;;
45011;SDS011;63444;48.148;11.542;2023-02-01T03:47:05;5.10;;;4.10;;
45011;SDS011;63444;48.148;11.542;2023-02-01T03:49:44;4.73;;;4.07;;
45011;SDS011;63444;48.148;11.542;2023-02-01T03:52:27;6.20;;;4.40;;
45011;SDS011;63444;48.148;11.542;2023-02-01T03:54:57;5.03;;;4.10;;
45011;SDS011;63444;48.148;11.542;2023-02-01T03:57:29;5.13;;;4.20;;
45011;SDS011;63444;48.148;11.542;2023-02-01T04:00:08;5.23;;;4.23;;
45011;SDS011;63444;48.148;11.542;2023-02-01T04:02:41;4.47;;;4.03;;
45011;SDS011;63444;48.148;11.542;2023-02-01T04:05:06;7.10;;;4.77;;
45011;SDS011;63444;48.148;11.542;2023-02-01T04:07:32;5.47;;;3.93;;
45011;SDS011;63444;48.148;11.542;2023-02-01T04:09:58;5.80;;;4.30;;
45011;SDS011;63444;48.148;11.542;2023-02-01T04:12:23;5.10;;;4.60;;
45011;SDS011;63444;48.148;11.542;2023-02-01T04:14:50;5.43;;;4.40;;
45011;SDS011;63444;48.148;11.542;2023-02-01T04:17:15;5.37;;;4.27;;
45011;SDS011;63444;48.148;11.542;2023-02-01T04:19:41;5.73;;;4.30;;
45011;SDS011;63444;48.148;11.542;2023-02-01T04:22:07;5.60;;;4.60;;
45011;SDS011;63444;48.148;11.542;2023-02-01T04:24:32;5.67;;;4.40;;
45011;SDS011;63444;48.148;11.542;2023-02-01T04:26:58;6.13;;;4.50;;
45011;SDS011;63444;48.148;11.542;2023-02-01T04:29:23;6.73;;;4.47;;
45011;SDS011;63444;48.148;11.542;2023-02-01T04:31:49;6.40;;;4.53;;
45011;SDS011;63444;48.148;11.542;2023-02-01T04:34:14;4.40;;;4.00;;
45011;SDS011;63444;48.148;11.542;2023-02-01T04:36:40;5.93;;;4.30;;
45011;SDS011;63444;48.148;11.542;2023-02-01T04:39:06;4.77;;;4.10;;
45011;SDS011;63444;48.148;11.542;2023-02-01T04:41:33;6.13;;;4.57;;
45011;SDS011;63444;48.148;11.542;2023-02-01T04:43:59;7.20;;;4.80;;
45011;SDS011;63444;48.148;11.542;2023-02-01T04:46:24;4.57;;;4.17;;
45011;SDS011;63444;48.148;11.542;2023-02-01T04:48:52;7.40;;;5.20;;
45011;SDS011;63444;48.148;11.542;2023-02-01T04:51:17;5.00;;;4.50;;
45011;SDS011;63444;48.148;11.542;2023-02-01T04:53:43;5.23;;;4.47;;
45011;SDS011;63444;48.148;11.542;2023-02-01T04:56:09;5.63;;;4.40;;
45011;SDS011;63444;48.148;11.542;2023-02-01T04:58:35;4.87;;;4.37;;
45011;SDS011;63444;48.148;11.542;2023-02-01T05:01:04;4.83;;;4.37;;
45011;SDS011;63444;48.148;11.542;2023-02-01T05:03:31;5.80;;;4.37;;
45011;SDS011;63444;48.148;11.542;2023-02-01T05:05:58;6.10;;;5.07;;
45011;SDS011;63444;48.148;11.542;2023-02-01T05:08:24;5.60;;;4.53;;
45011;SDS011;63444;48.148;11.542;2023-02-01T05:10:50;7.40;;;4.63;;
45011;SDS011;63444;48.148;11.542;2023-02-01T05:13:16;6.03;;;4.80;;
45011;SDS011;63444;48.148;11.542;2023-02-01T05:16:00;5.40;;;4.87;;
45011;SDS011;63444;48.148;11.542;2023-02-01T05:18:26;7.23;;;4.70;;
45011;SDS011;63444;48.148;11.542;2023-02-01T05:20:51;5.40;;;4.60;;
45011;SDS011;63444;48.148;11.542;2023-02-01T05:23:17;5.63;;;5.03;;
45011;SDS011;63444;48.148;11.542;2023-02-01T05:25:43;5.43;;;4.93;;
45011;SDS011;63444;48.148;11.542;2023-02-01T05:28:09;6.07;;;5.10;;
45011;SDS011;63444;48.148;11.542;2023-02-01T05:30:35;6.57;;;4.50;;
45011;SDS011;63444;48.148;11.542;2023-02-01T05:33:01;8.07;;;4.80;;
45011;SDS011;63444;48.148;11.542;2023-02-01T05:35:27;6.60;;;5.37;;
45011;SDS011;63444;48.148;11.542;2023-02-01T05:37:52;5.90;;;4.60;;
45011;SDS011;63444;48.148;11.542;2023-02-01T05:40:20;7.00;;;4.87;;
45011;SDS011;63444;48.148;11.542;2023-02-01T05:42:45;6.60;;;5.13;;
45011;SDS011;63444;48.148;11.542;2023-02-01T05:45:11;6.80;;;4.83;;
45011;SDS011;63444;48.148;11.542;2023-02-01T05:47:37;4.97;;;4.50;;
45011;SDS011;63444;48.148;11.542;2023-02-01T05:50:03;5.17;;;4.67;;
45011;SDS011;63444;48.148;11.542;2023-02-01T05:52:29;6.17;;;4.87;;
45011;SDS011;63444;48.148;11.542;2023-02-01T05:54:55;5.77;;;4.63;;
45011;SDS011;63444;48.148;11.542;2023-02-01T05:57:21;6.00;;;5.10;;
45011;SDS011;63444;48.148;11.542;2023-02-01T05:59:46;6.83;;;5.00;;
45011;SDS011;63444;48.148;11.542;2023-02-01T06:02:13;5.20;;;4.70;;
45011;SDS011;63444;48.148;11.542;2023-02-01T06:04:41;6.47;;;5.33;;
45011;SDS011;63444;48.148;11.542;2023-02-01T06:07:08;5.23;;;4.70;;
45011;SDS011;63444;48.148;11.542;2023-02-01T06:09:35;5.33;;;4.73;;
45011;SDS011;63444;48.148;11.542;2023-02-01T06:12:02;6.47;;;5.00;;
45011;SDS011;63444;48.148;11.542;2023-02-01T06:14:28;6.30;;;5.23;;
45011;SDS011;63444;48.148;11.542;2023-02-01T06:16:54;7.60;;;5.50;;
45011;SDS011;63444;48.148;11.542;2023-02-01T06:19:20;17.93;;;5.57;;
45011;SDS011;63444;48.148;11.542;2023-02-01T06:21:47;5.87;;;5.27;;
45011;SDS011;63444;48.148;11.542;2023-02-01T06:24:13;5.97;;;5.03;;
45011;SDS011;63444;48.148;11.542;2023-02-01T06:26:39;6.03;;;4.77;;
45011;SDS011;63444;48.148;11.542;2023-02-01T06:29:05;6.13;;;4.60;;
45011;SDS011;63444;48.148;11.542;2023-02-01T06:31:31;6.17;;;4.93;;
45011;SDS011;63444;48.148;11.542;2023-02-01T06:33:57;5.80;;;4.87;;
45011;SDS011;63444;48.148;11.542;2023-02-01T06:36:23;5.37;;;4.83;;
45011;SDS011;63444;48.148;11.542;2023-02-01T06:38:49;8.10;;;4.83;;
45011;SDS011;63444;48.148;11.542;2023-02-01T06:41:14;5.77;;;4.97;;
45011;SDS011;63444;48.148;11.542;2023-02-01T06:43:41;5.00;;;4.50;;
45011;SDS011;63444;48.148;11.542;2023-02-01T06:46:11;5.47;;;4.83;;
45011;SDS011;63444;48.148;11.542;2023-02-01T06:48:37;5.23;;;4.73;;
45011;SDS011;63444;48.148;11.542;2023-02-01T06:51:03;7.20;;;5.37;;
45011;SDS011;63444;48.148;11.542;2023-02-01T06:53:29;5.07;;;4.47;;
45011;SDS011;63444;48.148;11.542;2023-02-01T06:55:55;7.40;;;4.67;;
45011;SDS011;63444;48.148;11.542;2023-02-01T06:58:28;5.27;;;4.37;;
45011;SDS011;63444;48.148;11.542;2023-02-01T07:00:55;5.03;;;4.30;;
45011;SDS011;63444;48.148;11.542;2023-02-01T07:03:20;5.87;;;4.33;;
45011;SDS011;63444;48.148;11.542;2023-02-01T07:05:46;5.47;;;4.27;;
45011;SDS011;63444;48.148;11.542;2023-02-01T07:08:13;5.23;;;4.63;;
45011;SDS011;63444;48.148;11.542;2023-02-01T07:10:39;6.17;;;4.97;;
45011;SDS011;63444;48.148;11.542;2023-02-01T07:13:04;5.20;;;4.50;;
45011;SDS011;63444;48.148;11.542;2023-02-01T07:15:30;6.27;;;4.33;;
45011;SDS011;63444;48.148;11.542;2023-02-01T07:17:55;7.23;;;4.57;;
45011;SDS011;63444;48.148;11.542;2023-02-01T07:20:21;4.07;;;3.70;;
45011;SDS011;63444;48.148;11.542;2023-02-01T07:22:48;6.60;;;4.27;;
45011;SDS011;63444;48.148;11.542;2023-02-01T07:25:13;7.73;;;4.17;;
45011;SDS011;63444;48.148;11.542;2023-02-01T07:27:39;7.23;;;4.50;;
45011;SDS011;63444;48.148;11.542;2023-02-01T07:30:05;7.57;;;4.37;;
45011;SDS011;63444;48.148;11.542;2023-02-01T07:32:31;4.47;;;3.57;;
45011;SDS011;63444;48.148;11.542;2023-02-01T07:34:57;5.40;;;3.97;;
45011;SDS011;63444;48.148;11.542;2023-02-01T07:37:23;5.03;;;3.67;;
45011;SDS011;63444;48.148;11.542;2023-02-01T07:39:49;4.13;;;3.40;;
45011;SDS011;63444;48.148;11.542;2023-02-01T07:42:18;6.23;;;3.70;;
45011;SDS011;63444;48.148;11.542;2023-02-01T07:44:44;3.90;;;3.43;;
45011;SDS011;63444;48.148;11.542;2023-02-01T07:47:09;6.23;;;3.87;;
45011;SDS011;63444;48.148;11.542;2023-02-01T07:49:35;4.63;;;3.07;;
45011;SDS011;63444;48.148;11.542;2023-02-01T07:52:00;4.30;;;3.47;;
45011;SDS011;63444;48.148;11.542;2023-02-01T07:54:26;3.80;;;3.20;;
45011;SDS011;63444;48.148;11.542;2023-02-01T07:56:52;3.60;;;3.17;;
45011;SDS011;63444;48.148;11.542;2023-02-01T07:59:17;3.97;;;3.40;;
45011;SDS011;63444;48.148;11.542;2023-02-01T08:01:43;4.93;;;3.17;;
45011;SDS011;63444;48.148;11.542;2023-02-01T08:04:12;3.53;;;2.80;;
45011;SDS011;63444;48.148;11.542;2023-02-01T08:06:39;6.43;;;3.00;;
45011;SDS011;63444;48.148;11.542;2023-02-01T08:09:05;3.50;;;3.00;;
45011;SDS011;63444;48.148;11.542;2023-02-01T08:11:33;4.80;;;3.40;;
45011;SDS011;63444;48.148;11.542;2023-02-01T08:13:59;5.07;;;2.97;;
45011;SDS011;63444;48.148;11.542;2023-02-01T08:16:24;3.90;;;2.80;;
45011;SDS011;63444;48.148;11.542;2023-02-01T08:18:50;3.43;;;2.80;;
45011;SDS011;63444;48.148;11.542;2023-02-01T08:21:21;3.77;;;3.20;;
45011;SDS011;63444;48.148;11.542;2023-02-01T08:23:49;3.13;;;2.63;;
45011;SDS011;63444;48.148;11.542;2023-02-01T08:26:16;7.13;;;3.20;;
45011;SDS011;63444;48.148;11.542;2023-02-01T08:28:51;6.10;;;3.10;;
45011;SDS011;63444;48.148;11.542;2023-02-01T08:31:20;6.83;;;3.40;;
45011;SDS011;63444;48.148;11.542;2023-02-01T08:33:49;3.40;;;3.03;;
45011;SDS011;63444;48.148;11.542;2023-02-01T08:36:17;4.83;;;2.93;;
45011;SDS011;63444;48.148;11.542;2023-02-01T08:38:43;4.93;;;2.77;;
45011;SDS011;63444;48.148;11.542;2023-02-01T08:41:10;5.33;;;2.90;;
45011;SDS011;63444;48.148;11.542;2023-02-01T08:43:37;5.10;;;3.37;;
45011;SDS011;63444;48.148;11.542;2023-02-01T08:46:03;5.63;;;3.00;;
45011;SDS011;63444;48.148;11.542;2023-02-01T08:48:30;6.73;;;3.17;;
45011;SDS011;63444;48.148;11.542;2023-02-01T08:50:56;3.67;;;2.80;;
45011;SDS011;63444;48.148;11.542;2023-02-01T08:53:22;3.50;;;3.10;;
45011;SDS011;63444;48.148;11.542;2023-02-01T08:55:48;11.20;;;3.33;;
45011;SDS011;63444;48.148;11.542;2023-02-01T08:58:14;2.87;;;2.57;;
45011;SDS011;63444;48.148;11.542;2023-02-01T09:00:41;5.70;;;3.00;;
45011;SDS011;63444;48.148;11.542;2023-02-01T09:03:11;5.13;;;2.70;;
45011;SDS011;63444;48.148;11.542;2023-02-01T09:05:37;6.17;;;3.20;;
45011;SDS011;63444;48.148;11.542;2023-02-01T09:08:03;6.10;;;3.03;;
45011;SDS011;63444;48.148;11.542;2023-02-01T09:10:30;5.73;;;2.80;;
45011;SDS011;63444;48.148;11.542;2023-02-01T09:12:56;4.50;;;2.70;;
45011;SDS011;63444;48.148;11.542;2023-02-01T09:15:22;3.83;;;2.57;;
45011;SDS011;63444;48.148;11.542;2023-02-01T09:17:47;11.73;;;3.20;;
45011;SDS011;63444;48.148;11.542;2023-02-01T09:20:13;5.73;;;3.10;;
45011;SDS011;63444;48.148;11.542;2023-02-01T09:22:39;4.43;;;2.67;;
45011;SDS011;63444;48.148;11.542;2023-02-01T09:25:05;3.90;;;2.70;;
45011;SDS011;63444;48.148;11.542;2023-02-01T09:27:32;6.10;;;3.20;;
45011;SDS011;63444;48.148;11.542;2023-02-01T09:29:58;4.60;;;3.20;;
45011;SDS011;63444;48.148;11.542;2023-02-01T09:32:24;5.83;;;3.00;;
45011;SDS011;63444;48.148;11.542;2023-02-01T09:34:50;3.70;;;2.93;;
45011;SDS011;63444;48.148;11.542;2023-02-01T09:37:16;4.17;;;3.07;;
45011;SDS011;63444;48.148;11.542;2023-02-01T09:39:42;7.30;;;2.97;;
45011;SDS011;63444;48.148;11.542;2023-02-01T09:48:11;3.77;;;2.50;;
45011;SDS011;63444;48.148;11.542;2023-02-01T09:50:45;3.30;;;2.80;;
45011;SDS011;63444;48.148;11.542;2023-02-01T09:53:18;4.00;;;2.70;;
45011;SDS011;63444;48.148;11.542;2023-02-01T09:56:00;5.20;;;2.50;;
45011;SDS011;63444;48.148;11.542;2023-02-01T09:58:38;3.20;;;2.40;;
45011;SDS011;63444;48.148;11.542;2023-02-01T10:01:15;3.60;;;2.63;;
45011;SDS011;63444;48.148;11.542;2023-02-01T10:03:44;4.47;;;2.40;;
45011;SDS011;63444;48.148;11.542;2023-02-01T10:06:14;4.90;;;3.00;;
45011;SDS011;63444;48.148;11.542;2023-02-01T10:09:08;4.60;;;2.67;;
45011;SDS011;63444;48.148;11.542;2023-02-01T10:11:45;3.00;;;2.70;;
45011;SDS011;63444;48.148;11.542;2023-02-01T10:16:58;7.30;;;2.73;;
45011;SDS011;63444;48.148;11.542;2023-02-01T10:22:07;3.93;;;2.80;;
45011;SDS011;63444;48.148;11.542;2023-02-01T10:24:45;6.60;;;2.97;;
45011;SDS011;63444;48.148;11.542;2023-02-01T10:27:35;3.93;;;2.90;;
45011;SDS011;63444;48.148;11.542;2023-02-01T10:30:14;4.10;;;3.20;;
45011;SDS011;63444;48.148;11.542;2023-02-01T10:32:44;8.83;;;3.07;;
45011;SDS011;63444;48.148;11.542;2023-02-01T10:35:13;4.53;;;2.83;;
45011;SDS011;63444;48.148;11.542;2023-02-01T10:37:42;3.13;;;2.77;;
45011;SDS011;63444;48.148;11.542;2023-02-01T10:42:44;4.93;;;2.77;;
45011;SDS011;63444;48.148;11.542;2023-02-01T10:45:15;6.73;;;2.80;;
45011;SDS011;63444;48.148;11.542;2023-02-01T10:47:43;4.97;;;2.90;;
45011;SDS011;63444;48.148;11.542;2023-02-01T10:50:15;4.80;;;2.67;;
45011;SDS011;63444;48.148;11.542;2023-02-01T10:53:10;3.03;;;2.80;;
45011;SDS011;63444;48.148;11.542;2023-02-01T10:55:51;4.60;;;3.03;;
45011;SDS011;63444;48.148;11.542;2023-02-01T10:58:43;3.10;;;2.80;;
45011;SDS011;63444;48.148;11.542;2023-02-01T11:01:58;5.37;;;3.37;;
45011;SDS011;63444;48.148;11.542;2023-02-01T11:04:10;6.27;;;3.00;;
45011;SDS011;63444;48.148;11.542;2023-02-01T11:06:44;3.57;;;2.93;;
45011;SDS011;63444;48.148;11.542;2023-02-01T11:09:22;3.60;;;3.03;;
45011;SDS011;63444;48.148;11.542;2023-02-01T11:16:51;3.33;;;2.97;;
45011;SDS011;63444;48.148;11.542;2023-02-01T11:19:25;6.03;;;3.23;;
45011;SDS011;63444;48.148;11.542;2023-02-01T11:21:52;5.07;;;2.37;;
45011;SDS011;63444;48.148;11.542;2023-02-01T11:26:58;5.97;;;3.10;;
45011;SDS011;63444;48.148;11.542;2023-02-01T11:29:25;3.57;;;2.97;;
45011;SDS011;63444;48.148;11.542;2023-02-01T11:31:57;4.43;;;3.30;;
45011;SDS011;63444;48.148;11.542;2023-02-01T11:34:25;6.30;;;3.57;;
45011;SDS011;63444;48.148;11.542;2023-02-01T11:37:00;5.57;;;3.07;;
45011;SDS011;63444;48.148;11.542;2023-02-01T11:39:31;4.23;;;3.20;;
45011;SDS011;63444;48.148;11.542;2023-02-01T11:42:11;4.53;;;3.33;;
45011;SDS011;63444;48.148;11.542;2023-02-01T11:44:39;3.30;;;3.00;;
45011;SDS011;63444;48.148;11.542;2023-02-01T11:47:19;6.20;;;3.20;;
45011;SDS011;63444;48.148;11.542;2023-02-01T11:49:47;4.70;;;3.17;;
45011;SDS011;63444;48.148;11.542;2023-02-01T11:52:17;5.70;;;3.13;;
45011;SDS011;63444;48.148;11.542;2023-02-01T11:55:13;3.83;;;3.30;;
45011;SDS011;63444;48.148;11.542;2023-02-01T12:05:58;6.80;;;3.70;;
45011;SDS011;63444;48.148;11.542;2023-02-01T12:13:47;6.20;;;3.60;;
45011;SDS011;63444;48.148;11.542;2023-02-01T12:24:31;12.30;;;3.60;;
45011;SDS011;63444;48.148;11.542;2023-02-01T12:29:55;4.73;;;3.20;;
45011;SDS011;63444;48.148;11.542;2023-02-01T12:35:53;5.40;;;3.43;;
45011;SDS011;63444;48.148;11.542;2023-02-01T12:41:00;7.57;;;3.80;;
45011;SDS011;63444;48.148;11.542;2023-02-01T12:43:33;13.27;;;3.83;;
45011;SDS011;63444;48.148;11.542;2023-02-01T12:46:08;7.57;;;3.47;;
45011;SDS011;63444;48.148;11.542;2023-02-01T12:49:05;5.07;;;3.37;;
45011;SDS011;63444;48.148;11.542;2023-02-01T12:51:38;7.87;;;3.50;;
45011;SDS011;63444;48.148;11.542;2023-02-01T12:54:11;5.10;;;3.33;;
45011;SDS011;63444;48.148;11.542;2023-02-01T12:56:40;7.07;;;3.63;;
45011;SDS011;63444;48.148;11.542;2023-02-01T12:59:32;6.53;;;3.20;;
45011;SDS011;63444;48.148;11.542;2023-02-01T13:07:19;6.90;;;2.60;;
45011;SDS011;63444;48.148;11.542;2023-02-01T13:12:51;10.70;;;3.10;;
45011;SDS011;63444;48.148;11.542;2023-02-01T13:15:32;5.53;;;3.20;;
45011;SDS011;63444;48.148;11.542;2023-02-01T13:18:05;5.13;;;2.90;;
45011;SDS011;63444;48.148;11.542;2023-02-01T13:20:48;7.10;;;3.00;;
45011;SDS011;63444;48.148;11.542;2023-02-01T13:23:26;7.40;;;3.40;;
45011;SDS011;63444;48.148;11.542;2023-02-01T13:25:54;6.17;;;2.90;;
45011;SDS011;63444;48.148;11.542;2023-02-01T13:34:01;4.03;;;2.80;;
45011;SDS011;63444;48.148;11.542;2023-02-01T13:43:02;5.67;;;3.20;;
45011;SDS011;63444;48.148;11.542;2023-02-01T13:45:42;4.07;;;3.23;;
45011;SDS011;63444;48.148;11.542;2023-02-01T13:48:19;5.00;;;3.40;;
45011;SDS011;63444;48.148;11.542;2023-02-01T13:50:54;3.43;;;3.00;;
45011;SDS011;63444;48.148;11.542;2023-02-01T13:53:23;7.90;;;3.30;;
45011;SDS011;63444;48.148;11.542;2023-02-01T13:55:59;4.30;;;3.20;;
45011;SDS011;63444;48.148;11.542;2023-02-01T14:03:49;5.97;;;2.90;;
45011;SDS011;63444;48.148;11.542;2023-02-01T14:11:39;3.67;;;3.27;;
45011;SDS011;63444;48.148;11.542;2023-02-01T14:16:43;4.30;;;2.60;;
45011;SDS011;63444;48.148;11.542;2023-02-01T14:19:30;4.10;;;2.67;;
45011;SDS011;63444;48.148;11.542;2023-02-01T14:21:58;3.83;;;2.63;;
45011;SDS011;63444;48.148;11.542;2023-02-01T14:24:32;4.57;;;3.00;;
45011;SDS011;63444;48.148;11.542;2023-02-01T14:29:43;5.77;;;3.13;;
45011;SDS011;63444;48.148;11.542;2023-02-01T14:32:20;3.17;;;2.60;;
45011;SDS011;63444;48.148;11.542;2023-02-01T14:40:04;5.20;;;2.60;;
45011;SDS011;63444;48.148;11.542;2023-02-01T14:42:50;6.30;;;3.33;;
45011;SDS011;63444;48.148;11.542;2023-02-01T14:47:49;3.03;;;2.37;;
45011;SDS011;63444;48.148;11.542;2023-02-01T14:55:51;5.33;;;2.97;;
45011;SDS011;63444;48.148;11.542;2023-02-01T14:58:53;5.83;;;2.73;;
45011;SDS011;63444;48.148;11.542;2023-02-01T15:01:29;3.80;;;2.80;;
45011;SDS011;63444;48.148;11.542;2023-02-01T15:04:13;3.63;;;2.60;;
45011;SDS011;63444;48.148;11.542;2023-02-01T15:10:04;5.93;;;2.53;;
45011;SDS011;63444;48.148;11.542;2023-02-01T15:17:27;3.47;;;2.50;;
45011;SDS011;63444;48.148;11.542;2023-02-01T15:20:15;3.20;;;2.60;;
45011;SDS011;63444;48.148;11.542;2023-02-01T15:22:51;3.53;;;2.63;;
45011;SDS011;63444;48.148;11.542;2023-02-01T15:25:19;5.07;;;3.00;;
45011;SDS011;63444;48.148;11.542;2023-02-01T15:27:46;4.80;;;2.90;;
45011;SDS011;63444;48.148;11.542;2023-02-01T15:30:16;4.97;;;2.50;;
45011;SDS011;63444;48.148;11.542;2023-02-01T15:32:48;7.77;;;2.90;;
45011;SDS011;63444;48.148;11.542;2023-02-01T15:38:20;5.70;;;2.70;;
45011;SDS011;63444;48.148;11.542;2023-02-01T15:43:24;4.90;;;2.33;;
45011;SDS011;63444;48.148;11.542;2023-02-01T15:45:50;4.07;;;2.40;;
45011;SDS011;63444;48.148;11.542;2023-02-01T15:48:20;5.37;;;2.93;;
45011;SDS011;63444;48.148;11.542;2023-02-01T15:50:50;4.40;;;2.27;;
45011;SDS011;63444;48.148;11.542;2023-02-01T15:53:19;6.53;;;2.70;;
45011;SDS011;63444;48.148;11.542;2023-02-01T15:55:53;5.80;;;2.60;;
45011;SDS011;63444;48.148;11.542;2023-02-01T15:58:24;5.03;;;2.90;;
45011;SDS011;63444;48.148;11.542;2023-02-01T16:00:52;6.93;;;2.77;;
45011;SDS011;63444;48.148;11.542;2023-02-01T16:06:07;6.60;;;2.97;;
45011;SDS011;63444;48.148;11.542;2023-02-01T16:09:01;5.23;;;2.57;;
45011;SDS011;63444;48.148;11.542;2023-02-01T16:11:40;4.83;;;2.93;;
45011;SDS011;63444;48.148;11.542;2023-02-01T16:14:12;6.47;;;2.60;;
45011;SDS011;63444;48.148;11.542;2023-02-01T16:16:37;6.70;;;2.50;;
45011;SDS011;63444;48.148;11.542;2023-02-01T16:19:03;6.23;;;2.37;;
45011;SDS011;63444;48.148;11.542;2023-02-01T16:21:29;5.10;;;2.33;;
45011;SDS011;63444;48.148;11.542;2023-02-01T16:23:54;8.03;;;2.73;;
45011;SDS011;63444;48.148;11.542;2023-02-01T16:26:20;4.47;;;2.30;;
45011;SDS011;63444;48.148;11.542;2023-02-01T16:28:47;6.33;;;2.47;;
45011;SDS011;63444;48.148;11.542;2023-02-01T16:31:14;6.77;;;2.33;;
45011;SDS011;63444;48.148;11.542;2023-02-01T16:33:44;5.77;;;2.83;;
45011;SDS011;63444;48.148;11.542;2023-02-01T16:36:11;8.20;;;2.77;;
45011;SDS011;63444;48.148;11.542;2023-02-01T16:38:38;4.90;;;2.47;;
45011;SDS011;63444;48.148;11.542;2023-02-01T16:41:04;3.43;;;2.00;;
45011;SDS011;63444;48.148;11.542;2023-02-01T16:43:30;7.30;;;2.63;;
45011;SDS011;63444;48.148;11.542;2023-02-01T16:45:58;8.07;;;2.70;;
45011;SDS011;63444;48.148;11.542;2023-02-01T16:48:35;8.07;;;3.07;;
45011;SDS011;63444;48.148;11.542;2023-02-01T16:51:08;3.83;;;2.57;;
45011;SDS011;63444;48.148;11.542;2023-02-01T16:53:36;3.73;;;2.53;;
45011;SDS011;63444;48.148;11.542;2023-02-01T16:56:04;7.63;;;2.87;;
45011;SDS011;63444;48.148;11.542;2023-02-01T16:58:55;7.83;;;2.90;;
45011;SDS011;63444;48.148;11.542;2023-02-01T17:01:22;8.07;;;3.27;;
45011;SDS011;63444;48.148;11.542;2023-02-01T17:03:48;7.83;;;2.90;;
45011;SDS011;63444;48.148;11.542;2023-02-01T17:06:15;5.40;;;2.57;;
45011;SDS011;63444;48.148;11.542;2023-02-01T17:08:44;11.03;;;2.77;;
45011;SDS011;63444;48.148;11.542;2023-02-01T17:11:12;9.43;;;2.87;;
45011;SDS011;63444;48.148;11.542;2023-02-01T17:13:39;6.20;;;2.50;;
45011;SDS011;63444;48.148;11.542;2023-02-01T17:19:03;7.80;;;2.77;;
45011;SDS011;63444;48.148;11.542;2023-02-01T17:21:34;6.10;;;2.73;;
45011;SDS011;63444;48.148;11.542;2023-02-01T17:24:21;6.03;;;2.50;;
45011;SDS011;63444;48.148;11.542;2023-02-01T17:26:49;7.73;;;3.00;;
45011;SDS011;63444;48.148;11.542;2023-02-01T17:29:16;6.53;;;2.60;;
45011;SDS011;63444;48.148;11.542;2023-02-01T17:31:45;8.07;;;2.60;;
45011;SDS011;63444;48.148;11.542;2023-02-01T17:34:14;6.03;;;2.77;;
45011;SDS011;63444;48.148;11.542;2023-02-01T17:36:41;6.90;;;3.17;;
45011;SDS011;63444;48.148;11.542;2023-02-01T17:39:08;7.13;;;2.67;;